Time;durP1;ratioP1;P1;durP2;ratioP2;P2;SDS_P1;SDS_P2;PMS_P1;PMS_P2;Temp;Humidity;BMP_temperature;BMP_pressure;BME280_temperature;BME280_humidity;BME280_pressure;Samples;Min_cycle;Max_cycle;Signal;HPM_P1;HPM_P2
2022/09/20 00:00:41;;;;;;;3.25;0.85;;;9.80;99.90;;;;;;5071178;28;20482;-75
2022/09/20 00:03:08;;;;;;;2.50;0.70;;;9.80;99.90;;;;;;5075727;28;20072;-75
2022/09/20 00:05:35;;;;;;;2.92;0.80;;;9.80;99.90;;;;;;5076408;28;20058;-75
2022/09/20 00:08:06;;;;;;;4.32;1.00;;;9.70;99.90;;;;;;5075202;28;20392;-75
2022/09/20 00:10:36;;;;;;;4.68;1.15;;;9.70;99.90;;;;;;5075553;28;20128;-75
2022/09/20 00:13:03;;;;;;;3.90;1.05;;;9.70;99.90;;;;;;5076475;28;20205;-75
2022/09/20 00:15:30;;;;;;;5.03;0.98;;;9.60;99.90;;;;;;5075199;28;20040;-76
2022/09/20 00:17:56;;;;;;;2.78;0.90;;;9.60;99.90;;;;;;5076481;28;20044;-75
2022/09/20 00:20:22;;;;;;;3.47;0.70;;;9.60;99.90;;;;;;5075207;28;20110;-75
2022/09/20 00:22:48;;;;;;;5.30;0.90;;;9.60;99.90;;;;;;5075022;28;20040;-75
2022/09/20 00:25:18;;;;;;;2.60;0.80;;;9.50;99.90;;;;;;5076078;28;20055;-75
2022/09/20 00:27:44;;;;;;;4.05;0.88;;;9.50;99.90;;;;;;5076009;28;20044;-75
2022/09/20 00:30:11;;;;;;;3.20;0.98;;;9.40;99.90;;;;;;5075246;28;20078;-75
2022/09/20 00:32:38;;;;;;;3.20;0.82;;;9.60;99.90;;;;;;5075394;28;20049;-76
2022/09/20 00:35:09;;;;;;;3.70;0.90;;;9.30;99.90;;;;;;5075729;28;20059;-75
2022/09/20 00:37:39;;;;;;;6.70;0.85;;;9.30;99.90;;;;;;5074737;28;20051;-75
2022/09/20 00:40:13;;;;;;;2.03;0.90;;;9.20;99.90;;;;;;5075867;28;20040;-74
2022/09/20 00:42:39;;;;;;;5.68;1.15;;;9.00;99.90;;;;;;5075519;28;20489;-75
2022/09/20 00:45:15;;;;;;;3.10;1.10;;;8.90;99.90;;;;;;5074519;28;20137;-75
2022/09/20 00:47:43;;;;;;;3.15;0.90;;;8.80;99.90;;;;;;5075692;28;20044;-76
2022/09/20 00:50:24;;;;;;;3.63;0.90;;;8.70;99.90;;;;;;5057919;28;20049;-75
2022/09/20 00:53:02;;;;;;;3.75;0.90;;;8.70;99.90;;;;;;5075377;28;20044;-75
2022/09/20 00:55:28;;;;;;;4.32;0.82;;;8.60;99.90;;;;;;5075586;28;20041;-76
2022/09/20 00:57:55;;;;;;;1.95;0.90;;;8.60;99.90;;;;;;5074774;28;20045;-76
2022/09/20 01:00:20;;;;;;;4.05;0.90;;;8.60;99.90;;;;;;5058704;28;20053;-76
2022/09/20 01:02:56;;;;;;;3.15;0.90;;;8.50;99.90;;;;;;5073850;28;20044;-76
2022/09/20 01:05:22;;;;;;;4.78;1.20;;;8.60;99.90;;;;;;5075885;28;20037;-75
2022/09/20 01:07:51;;;;;;;2.33;0.80;;;8.60;99.90;;;;;;5057038;28;20382;-75
2022/09/20 01:10:18;;;;;;;1.52;0.70;;;8.60;99.90;;;;;;5074970;28;20417;-76
2022/09/20 01:12:46;;;;;;;4.20;0.90;;;8.60;99.90;;;;;;5056756;28;20044;-76
2022/09/20 01:15:14;;;;;;;3.42;0.85;;;8.60;99.90;;;;;;5057307;28;20056;-75
2022/09/20 01:17:45;;;;;;;4.72;0.93;;;8.50;99.90;;;;;;5073931;28;20048;-75
2022/09/20 01:20:16;;;;;;;3.85;1.25;;;8.60;99.90;;;;;;5074223;28;20041;-75
2022/09/20 01:23:16;;;;;;;3.33;1.05;;;8.70;99.90;;;;;;5075636;28;20365;-75
2022/09/20 01:26:16;;;;;;;3.90;0.98;;;8.50;99.90;;;;;;5035638;28;20064;-75
2022/09/20 01:28:46;;;;;;;4.00;1.00;;;8.40;99.90;;;;;;5074205;28;20048;-75
2022/09/20 01:31:35;;;;;;;5.10;1.20;;;8.30;99.90;;;;;;5074906;28;20131;-75
2022/09/20 01:34:30;;;;;;;3.85;1.00;;;8.20;99.90;;;;;;5057449;28;20061;-75
2022/09/20 01:37:25;;;;;;;3.70;0.90;;;8.10;99.90;;;;;;5073540;28;20056;-75
2022/09/20 01:40:27;;;;;;;1.55;0.70;;;8.10;99.90;;;;;;5073193;28;20481;-75
2022/09/20 01:43:06;;;;;;;4.05;0.65;;;8.10;99.90;;;;;;5052828;28;20056;-75
2022/09/20 01:45:31;;;;;;;3.75;0.98;;;8.10;99.90;;;;;;5073847;28;20090;-75
2022/09/20 01:48:34;;;;;;;4.95;0.95;;;8.10;99.90;;;;;;5074560;28;20048;-75
2022/09/20 01:51:09;;;;;;;2.83;1.00;;;8.10;99.90;;;;;;5075022;28;20044;-75
2022/09/20 01:54:03;;;;;;;4.18;0.80;;;8.10;99.90;;;;;;5073707;28;20045;-76
2022/09/20 01:56:32;;;;;;;2.50;1.02;;;8.10;99.90;;;;;;5073441;28;20131;-75
2022/09/20 01:59:26;;;;;;;2.67;0.70;;;8.00;99.90;;;;;;5073574;28;20044;-75
2022/09/20 02:01:52;;;;;;;4.07;1.45;;;8.00;99.90;;;;;;5074010;28;20056;-76
2022/09/20 02:04:39;;;;;;;3.45;0.95;;;8.10;99.90;;;;;;5073579;28;20052;-76
2022/09/20 02:07:38;;;;;;;2.78;1.30;;;7.90;99.90;;;;;;5056384;28;20060;-75
2022/09/20 02:10:28;;;;;;;4.43;0.98;;;7.90;99.90;;;;;;5056109;28;20071;-75
2022/09/20 02:13:16;;;;;;;3.13;0.80;;;7.90;99.90;;;;;;5073350;28;20127;-75
2022/09/20 02:16:20;;;;;;;4.97;1.00;;;7.90;99.90;;;;;;5074518;28;20213;-75
2022/09/20 02:19:10;;;;;;;2.00;0.77;;;7.90;99.90;;;;;;5042031;28;20048;-75
2022/09/20 02:22:21;;;;;;;6.70;1.13;;;7.90;99.90;;;;;;5074376;28;20378;-75
2022/09/20 02:25:15;;;;;;;2.85;0.90;;;7.80;99.90;;;;;;5072852;28;20040;-75
2022/09/20 02:27:43;;;;;;;5.88;0.93;;;7.70;99.90;;;;;;5073559;28;20091;-75
2022/09/20 02:30:12;;;;;;;2.65;0.88;;;7.70;99.90;;;;;;5073747;28;20048;-75
2022/09/20 02:32:46;;;;;;;3.35;0.93;;;7.70;99.90;;;;;;5072356;28;20127;-75
2022/09/20 02:35:37;;;;;;;2.97;0.88;;;7.70;99.90;;;;;;5073452;28;20127;-74
2022/09/20 02:38:39;;;;;;;3.63;1.10;;;7.70;99.90;;;;;;5073650;28;20079;-75
2022/09/20 02:41:20;;;;;;;4.78;1.13;;;7.60;99.90;;;;;;5073445;28;20059;-75
2022/09/20 02:44:23;;;;;;;3.20;1.00;;;7.60;99.90;;;;;;5073616;28;20485;-75
2022/09/20 02:47:07;;;;;;;4.05;1.00;;;7.60;99.90;;;;;;5056513;28;20041;-75
2022/09/20 02:50:09;;;;;;;3.17;1.10;;;7.60;99.90;;;;;;5072835;28;20428;-75
2022/09/20 02:52:50;;;;;;;3.92;1.02;;;7.60;99.90;;;;;;5073476;28;20047;-75
2022/09/20 02:55:36;;;;;;;3.83;0.98;;;7.60;99.90;;;;;;5072744;28;20110;-76
2022/09/20 02:58:40;;;;;;;3.80;0.90;;;7.60;99.90;;;;;;5072459;28;20059;-75
2022/09/20 03:01:37;;;;;;;1.77;0.77;;;7.60;99.90;;;;;;5073191;28;20135;-75
2022/09/20 03:04:09;;;;;;;3.83;0.90;;;7.50;99.90;;;;;;5072706;28;20127;-75
2022/09/20 03:06:43;;;;;;;1.73;0.88;;;7.60;99.90;;;;;;5071988;28;20061;-75
2022/09/20 03:09:20;;;;;;;1.55;0.70;;;7.60;99.90;;;;;;5073017;28;20059;-75
2022/09/20 03:12:01;;;;;;;3.03;0.88;;;7.60;99.90;;;;;;5073236;28;20036;-75
2022/09/20 03:14:46;;;;;;;2.30;0.80;;;7.50;99.90;;;;;;5072241;28;20099;-75
2022/09/20 03:17:35;;;;;;;3.38;1.00;;;7.60;99.90;;;;;;5073015;28;20079;-76
2022/09/20 03:20:22;;;;;;;3.38;1.00;;;7.50;99.90;;;;;;5056323;28;20055;-76
2022/09/20 03:23:04;;;;;;;3.92;0.80;;;7.50;99.90;;;;;;5072855;28;20143;-75
2022/09/20 03:25:36;;;;;;;3.80;1.00;;;7.40;99.90;;;;;;5074592;28;20135;-76
2022/09/20 03:28:45;;;;;;;2.60;0.90;;;7.40;99.90;;;;;;5057752;28;20052;-75
2022/09/20 03:31:14;;;;;;;2.35;0.90;;;7.40;99.90;;;;;;5055249;28;20058;-76
2022/09/20 03:33:51;;;;;;;5.60;1.48;;;7.40;99.90;;;;;;5071731;28;20041;-75
2022/09/20 03:36:32;;;;;;;3.78;1.45;;;7.40;99.90;;;;;;5073816;28;20041;-75
2022/09/20 03:39:18;;;;;;;5.95;1.10;;;7.40;99.90;;;;;;5076373;28;20385;-75
2022/09/20 03:41:47;;;;;;;2.47;0.90;;;7.60;99.90;;;;;;5076846;28;20110;-75
2022/09/20 03:44:42;;;;;;;3.92;1.00;;;7.40;99.90;;;;;;5076597;28;20505;-75
2022/09/20 03:47:27;;;;;;;4.82;1.02;;;7.40;99.90;;;;;;5076647;28;20048;-75
2022/09/20 03:50:10;;;;;;;2.28;0.90;;;7.40;99.90;;;;;;5075791;28;20092;-77
2022/09/20 03:53:13;;;;;;;3.33;0.80;;;7.50;99.90;;;;;;5077051;28;20048;-74
2022/09/20 03:56:17;;;;;;;3.80;0.80;;;7.30;99.90;;;;;;5076818;28;20104;-75
2022/09/20 03:59:04;;;;;;;2.72;1.02;;;7.30;99.90;;;;;;5076429;28;20063;-75
2022/09/20 04:01:57;;;;;;;2.55;1.02;;;7.40;99.90;;;;;;5059736;28;20049;-75
2022/09/20 04:04:49;;;;;;;4.75;1.02;;;7.30;99.90;;;;;;5075749;28;20106;-75
2022/09/20 04:07:24;;;;;;;3.42;1.00;;;7.40;99.90;;;;;;5075273;28;20060;-75
2022/09/20 04:10:29;;;;;;;2.78;1.00;;;7.40;99.90;;;;;;5075199;28;20074;-75
2022/09/20 04:13:10;;;;;;;3.03;0.90;;;7.40;99.90;;;;;;5062705;28;20524;-74
2022/09/20 04:16:04;;;;;;;1.95;0.88;;;7.40;99.90;;;;;;5075516;28;20052;-75
2022/09/20 04:18:58;;;;;;;2.55;0.80;;;7.40;99.90;;;;;;5047005;28;20057;-76
2022/09/20 04:21:36;;;;;;;1.55;0.95;;;7.40;99.90;;;;;;5075503;28;20053;-75
2022/09/20 04:24:32;;;;;;;2.03;0.80;;;7.40;99.90;;;;;;5076213;28;20060;-75
2022/09/20 04:27:19;;;;;;;2.85;0.80;;;7.50;99.90;;;;;;5022843;28;20053;-75
2022/09/20 04:30:04;;;;;;;3.08;1.00;;;7.50;99.90;;;;;;5074839;28;20048;-75
2022/09/20 04:32:34;;;;;;;3.13;1.08;;;7.50;99.90;;;;;;5075909;28;20538;-75
2022/09/20 04:38:19;;;;;;;1.50;0.90;;;7.60;99.90;;;;;;5075729;28;20350;-75
2022/09/20 04:41:11;;;;;;;1.60;0.70;;;7.50;99.90;;;;;;5075890;28;20052;-76
2022/09/20 04:43:58;;;;;;;6.93;1.45;;;7.80;99.90;;;;;;5075624;28;20048;-76
2022/09/20 04:46:43;;;;;;;2.17;0.80;;;7.60;99.90;;;;;;5075404;28;20056;-76
2022/09/20 04:49:33;;;;;;;2.95;0.90;;;7.60;99.90;;;;;;5074681;28;20063;-75
2022/09/20 04:52:18;;;;;;;2.92;1.00;;;7.70;99.90;;;;;;5074325;28;20181;-75
2022/09/20 04:55:09;;;;;;;4.50;1.00;;;7.70;99.90;;;;;;5075393;28;20071;-75
2022/09/20 04:57:55;;;;;;;5.20;1.33;;;7.70;99.90;;;;;;5075574;28;20128;-75
2022/09/20 05:00:23;;;;;;;3.17;0.98;;;7.70;99.90;;;;;;5075388;28;20121;-75
2022/09/20 05:03:01;;;;;;;4.07;1.20;;;8.00;99.90;;;;;;5075261;28;20051;-75
2022/09/20 05:05:45;;;;;;;3.30;0.80;;;7.70;99.90;;;;;;5075357;28;20048;-76
2022/09/20 05:08:42;;;;;;;3.35;0.90;;;7.70;99.90;;;;;;5073561;28;20136;-75
2022/09/20 05:11:37;;;;;;;2.43;0.70;;;7.80;99.90;;;;;;5074468;28;20045;-75
2022/09/20 05:14:30;;;;;;;4.00;1.33;;;8.20;99.90;;;;;;5044113;28;20356;-74
2022/09/20 05:17:20;;;;;;;5.20;1.45;;;7.90;99.90;;;;;;5074936;28;20052;-75
2022/09/20 05:20:01;;;;;;;4.38;1.00;;;8.70;99.90;;;;;;5075305;28;20432;-74
2022/09/20 05:22:33;;;;;;;2.15;1.08;;;8.00;99.90;;;;;;5074305;28;20044;-75
2022/09/20 05:25:06;;;;;;;3.40;0.80;;;8.30;99.90;;;;;;5074771;28;20079;-75
2022/09/20 05:27:47;;;;;;;3.08;1.02;;;8.10;99.90;;;;;;5075258;28;20048;-74
2022/09/20 05:30:22;;;;;;;2.92;0.82;;;8.10;99.90;;;;;;5057239;28;20060;-75
2022/09/20 05:33:13;;;;;;;2.30;1.00;;;8.10;99.90;;;;;;5073965;28;20084;-75
2022/09/20 05:36:01;;;;;;;4.18;1.20;;;8.20;99.90;;;;;;5074658;28;20146;-75
2022/09/20 05:39:00;;;;;;;3.55;0.85;;;8.20;99.90;;;;;;5074539;28;20045;-76
2022/09/20 05:42:05;;;;;;;4.60;1.27;;;8.30;99.90;;;;;;5041356;28;20060;-76
2022/09/20 05:44:43;;;;;;;4.00;1.17;;;8.40;99.90;;;;;;5072780;28;20048;-75
2022/09/20 05:47:15;;;;;;;2.58;0.90;;;8.50;99.90;;;;;;5074172;28;20532;-75
2022/09/20 05:50:23;;;;;;;4.05;1.15;;;8.60;99.90;;;;;;5073179;28;20067;-75
2022/09/20 05:53:05;;;;;;;4.82;1.13;;;8.70;99.90;;;;;;5074921;28;20047;-75
2022/09/20 05:56:33;;;;;;;6.75;1.15;;;8.80;99.90;;;;;;5073258;28;20049;-75
2022/09/20 05:59:11;;;;;;;2.72;0.80;;;8.90;99.90;;;;;;5015949;28;20049;-74
2022/09/20 06:02:00;;;;;;;4.03;1.13;;;8.90;99.90;;;;;;5015382;28;20042;-74
2022/09/20 06:04:47;;;;;;;3.38;1.20;;;9.10;99.90;;;;;;5068799;28;20087;-75
2022/09/20 06:07:19;;;;;;;;;;;9.20;99.90;;;;;;5073990;28;20523;-74
2022/09/20 06:10:33;;;;;;;3.25;0.90;;;9.20;99.90;;;;;;5074437;28;20289;-74
2022/09/20 06:13:36;;;;;;;1.90;0.90;;;9.30;99.90;;;;;;5015359;28;20092;-74
2022/09/20 06:16:08;;;;;;;3.75;1.00;;;9.50;99.90;;;;;;5031601;28;20045;-74
2022/09/20 06:19:03;;;;;;;3.22;1.10;;;9.60;99.90;;;;;;5064537;28;20110;-74
2022/09/20 06:21:53;;;;;;;3.75;1.15;;;9.60;99.90;;;;;;5074449;28;20123;-74
2022/09/20 06:24:50;;;;;;;1.70;0.80;;;9.70;99.90;;;;;;5072615;28;20402;-75
2022/09/20 06:27:29;;;;;;;3.45;1.20;;;9.80;99.90;;;;;;5074610;28;20051;-68
2022/09/20 06:30:00;;;;;;;3.05;0.93;;;10.00;99.90;;;;;;5073060;28;20040;-67
2022/09/20 06:32:26;;;;;;;2.40;0.90;;;10.10;99.90;;;;;;5074139;28;20124;-67
2022/09/20 06:34:53;;;;;;;5.32;0.95;;;10.20;99.90;;;;;;5073847;28;20119;-67
2022/09/20 06:43:29;;;;;;;1.95;0.75;;;10.70;99.90;;;;;;5073664;28;20048;-68
2022/09/20 06:45:55;;;;;;;1.92;0.90;;;10.70;99.90;;;;;;5073492;28;20067;-67
2022/09/20 06:48:21;;;;;;;3.58;1.00;;;10.80;99.90;;;;;;5073483;28;20044;-68
2022/09/20 06:50:46;;;;;;;1.67;0.70;;;10.80;99.90;;;;;;5072432;28;20094;-67
2022/09/20 06:53:19;;;;;;;3.50;0.80;;;11.10;99.90;;;;;;5072374;28;20484;-68
2022/09/20 06:55:46;;;;;;;2.20;1.00;;;10.80;99.90;;;;;;5073373;28;20086;-67
2022/09/20 06:58:11;;;;;;;2.47;0.90;;;10.70;99.90;;;;;;5072148;28;20075;-67
2022/09/20 07:00:38;;;;;;;4.53;0.90;;;10.70;99.90;;;;;;5073360;28;20040;-68
2022/09/20 07:03:05;;;;;;;2.92;0.90;;;10.70;99.90;;;;;;5073629;28;20083;-68
2022/09/20 07:05:30;;;;;;;3.63;0.90;;;10.70;99.90;;;;;;5073791;28;20049;-67
2022/09/20 07:07:57;;;;;;;3.30;0.95;;;10.70;99.90;;;;;;5073009;28;20409;-69
2022/09/20 07:10:26;;;;;;;3.15;0.80;;;10.70;99.90;;;;;;5072515;28;20088;-68
2022/09/20 07:12:55;;;;;;;1.70;0.80;;;10.80;99.90;;;;;;5072289;28;20080;-67
2022/09/20 07:15:23;;;;;;;2.78;0.90;;;10.70;99.90;;;;;;5072961;28;20053;-69
2022/09/20 07:17:50;;;;;;;2.50;0.80;;;10.70;99.90;;;;;;5073992;28;20048;-69
2022/09/20 07:20:16;;;;;;;2.67;1.08;;;10.70;99.90;;;;;;5055266;28;20056;-67
2022/09/20 07:22:41;;;;;;;3.78;1.02;;;10.70;99.90;;;;;;5073065;28;20044;-67
2022/09/20 07:25:08;;;;;;;2.35;0.90;;;10.60;99.90;;;;;;5073427;28;20185;-67
2022/09/20 07:27:33;;;;;;;4.00;1.00;;;10.60;99.90;;;;;;5072203;28;20052;-68
2022/09/20 07:30:01;;;;;;;1.77;0.80;;;10.50;99.90;;;;;;5072906;28;20048;-68
2022/09/20 07:32:26;;;;;;;2.97;0.80;;;10.70;99.90;;;;;;5072773;28;20040;-68
2022/09/20 07:34:52;;;;;;;2.08;0.95;;;10.80;99.90;;;;;;5072932;28;20055;-68
2022/09/20 07:37:18;;;;;;;3.08;0.85;;;11.00;99.90;;;;;;5072807;28;20071;-67
2022/09/20 07:39:47;;;;;;;4.57;0.65;;;11.10;99.90;;;;;;5073387;28;20135;-68
2022/09/20 07:42:19;;;;;;;3.78;0.80;;;11.30;99.90;;;;;;5073309;28;20044;-69
2022/09/20 07:44:46;;;;;;;3.45;1.10;;;11.50;99.90;;;;;;5072799;28;20052;-68
2022/09/20 07:47:13;;;;;;;1.70;0.70;;;11.60;99.90;;;;;;5072219;28;20060;-68
2022/09/20 07:49:39;;;;;;;4.53;0.98;;;11.80;99.90;;;;;;5072839;28;20535;-67
2022/09/20 07:52:06;;;;;;;2.88;0.90;;;11.90;99.90;;;;;;5071724;28;20075;-69
2022/09/20 07:54:32;;;;;;;1.70;0.70;;;12.10;99.90;;;;;;5072740;28;20401;-68
2022/09/20 07:56:57;;;;;;;3.00;1.08;;;12.10;99.90;;;;;;5071788;28;20127;-68
2022/09/20 07:59:24;;;;;;;5.40;0.90;;;12.10;99.90;;;;;;5072700;28;20044;-68
2022/09/20 08:01:50;;;;;;;2.13;0.80;;;12.20;99.90;;;;;;5071437;28;20059;-69
2022/09/20 08:04:16;;;;;;;2.05;0.68;;;12.50;99.90;;;;;;5072612;28;20044;-68
2022/09/20 08:06:43;;;;;;;3.60;1.00;;;12.60;99.90;;;;;;5072503;28;20160;-68
2022/09/20 08:09:10;;;;;;;6.43;2.15;;;12.70;99.90;;;;;;5073141;28;20044;-69
2022/09/20 08:11:38;;;;;;;2.00;0.90;;;12.70;99.90;;;;;;5072063;28;20055;-68
2022/09/20 08:14:04;;;;;;;2.65;0.80;;;12.80;99.90;;;;;;5072503;28;20405;-68
2022/09/20 08:16:31;;;;;;;3.30;1.10;;;12.90;99.90;;;;;;5072854;28;20178;-67
2022/09/20 08:18:59;;;;;;;5.10;0.75;;;12.90;99.90;;;;;;5073044;28;20047;-70
2022/09/20 08:21:28;;;;;;;3.03;0.80;;;12.90;99.90;;;;;;5072413;28;20047;-69
2022/09/20 08:23:54;;;;;;;2.25;0.77;;;12.90;99.90;;;;;;5074353;28;20574;-69
2022/09/20 08:26:25;;;;;;;1.48;0.50;;;13.00;99.90;;;;;;5076079;28;20087;-68
2022/09/20 08:28:52;;;;;;;2.40;0.77;;;13.00;99.90;;;;;;5074922;28;20045;-69
2022/09/20 08:31:21;;;;;;;3.75;0.82;;;13.00;99.90;;;;;;5075858;28;20385;-69
2022/09/20 08:33:48;;;;;;;3.50;0.60;;;13.00;99.90;;;;;;5076496;28;20048;-68
2022/09/20 08:36:16;;;;;;;1.80;0.60;;;13.00;99.90;;;;;;5075864;28;20053;-69
2022/09/20 08:38:42;;;;;;;2.05;0.55;;;13.10;99.90;;;;;;5076419;28;20382;-68
2022/09/20 08:41:25;;;;;;;1.38;0.50;;;13.10;99.90;;;;;;5075492;28;20534;-69
2022/09/20 08:44:02;;;;;;;2.85;0.60;;;13.10;99.90;;;;;;5075879;28;20044;-69
2022/09/20 08:46:34;;;;;;;3.95;0.60;;;13.20;99.90;;;;;;5075734;28;20051;-68
2022/09/20 08:49:04;;;;;;;1.10;0.50;;;13.10;99.90;;;;;;5076585;28;20051;-69
2022/09/20 08:51:36;;;;;;;1.98;0.50;;;13.20;99.90;;;;;;5074871;28;20036;-69
2022/09/20 08:54:06;;;;;;;1.98;0.55;;;13.20;99.90;;;;;;5076164;28;20171;-69
2022/09/20 08:56:35;;;;;;;1.23;0.60;;;13.20;99.90;;;;;;5075551;28;20048;-68
2022/09/20 08:59:05;;;;;;;1.65;0.50;;;13.30;99.90;;;;;;5075374;28;20087;-69
2022/09/20 09:01:32;;;;;;;1.33;0.40;;;13.30;99.90;;;;;;5075731;28;20485;-69
2022/09/20 09:04:14;;;;;;;1.98;0.60;;;13.40;99.90;;;;;;5075549;28;20465;-69
2022/09/20 09:06:40;;;;;;;1.17;0.50;;;13.40;99.90;;;;;;5075007;28;20515;-68
2022/09/20 09:09:07;;;;;;;1.80;0.50;;;13.40;99.90;;;;;;5075280;28;20102;-69
2022/09/20 09:11:33;;;;;;;3.40;0.47;;;13.40;99.90;;;;;;5075659;28;20048;-69
2022/09/20 09:14:46;;;;;;;2.30;0.40;;;13.40;99.90;;;;;;5075108;28;20044;-68
2022/09/20 09:16:54;;;;;;;2.95;0.50;;;13.50;99.90;;;;;;5074777;28;20044;-69
2022/09/20 09:19:41;;;;;;;0.90;0.50;;;13.60;99.90;;;;;;5075006;28;20082;-70
2022/09/20 09:22:07;;;;;;;1.02;0.50;;;13.60;99.90;;;;;;5075421;28;20193;-71
2022/09/20 09:24:32;;;;;;;1.63;0.70;;;13.70;99.90;;;;;;5074813;28;20405;-71
2022/09/20 09:27:25;;;;;;;1.60;0.50;;;13.80;99.90;;;;;;5073938;28;20080;-69
2022/09/20 09:29:54;;;;;;;1.10;0.47;;;13.90;99.90;;;;;;5071127;28;20477;-70
2022/09/20 09:32:27;;;;;;;1.70;0.60;;;13.90;99.90;;;;;;5075280;28;20363;-71
2022/09/20 09:34:54;;;;;;;2.45;0.52;;;14.00;99.90;;;;;;5074356;28;20048;-70
2022/09/20 09:37:27;;;;;;;2.08;0.55;;;14.30;99.90;;;;;;5074650;28;20048;-69
2022/09/20 09:40:17;;;;;;;1.27;0.50;;;14.40;99.90;;;;;;5073920;28;20095;-70
2022/09/20 09:42:58;;;;;;;1.35;0.40;;;14.60;99.90;;;;;;5069626;28;20440;-68
2022/09/20 09:45:37;;;;;;;2.42;0.57;;;14.80;99.90;;;;;;5073523;28;20054;-68
2022/09/20 09:48:25;;;;;;;1.27;0.57;;;14.90;99.90;;;;;;5074789;28;20056;-67
2022/09/20 09:51:14;;;;;;;1.25;0.60;;;15.00;99.90;;;;;;5074927;28;20144;-67
2022/09/20 09:53:41;;;;;;;2.30;0.70;;;15.00;99.90;;;;;;5074645;28;20037;-69
2022/09/20 09:56:31;;;;;;;2.50;0.75;;;15.10;99.90;;;;;;5074237;28;20048;-69
2022/09/20 09:59:18;;;;;;;3.30;0.57;;;15.20;99.90;;;;;;5074001;28;20135;-69
2022/09/20 10:01:50;;;;;;;2.17;0.50;;;15.30;99.90;;;;;;5074072;28;20135;-68
2022/09/20 10:04:24;;;;;;;3.20;0.70;;;15.30;99.90;;;;;;5073365;28;20056;-69
2022/09/20 10:07:16;;;;;;;1.27;0.60;;;15.40;99.90;;;;;;5073802;28;20489;-69
2022/09/20 10:09:44;;;;;;;2.45;0.60;;;15.50;99.90;;;;;;5074097;28;20052;-69
2022/09/20 10:12:34;;;;;;;2.10;0.52;;;15.40;99.90;;;;;;5073879;28;20504;-71
2022/09/20 10:15:22;;;;;;;2.88;0.68;;;15.30;99.90;;;;;;5073895;28;20052;-70
2022/09/20 10:18:02;;;;;;;1.13;0.50;;;15.10;99.90;;;;;;5074258;28;20049;-69
2022/09/20 10:20:42;;;;;;;2.60;0.68;;;15.00;99.90;;;;;;5074338;28;20363;-69
2022/09/20 10:23:31;;;;;;;2.30;0.50;;;14.90;99.90;;;;;;5074334;28;20080;-69
2022/09/20 10:26:25;;;;;;;2.58;0.50;;;14.80;99.90;;;;;;5074101;28;20102;-68
2022/09/20 10:29:14;;;;;;;2.05;0.57;;;14.70;99.90;;;;;;5073766;28;20084;-68
2022/09/20 10:32:00;;;;;;;0.85;0.40;;;14.70;99.90;;;;;;5073706;28;20051;-68
2022/09/20 10:34:31;;;;;;;3.47;0.68;;;14.70;99.90;;;;;;5073681;28;20048;-69
2022/09/20 10:36:59;;;;;;;2.50;0.60;;;14.70;99.90;;;;;;5073621;28;20052;-68
2022/09/20 10:39:33;;;;;;;2.35;1.00;;;14.60;99.90;;;;;;5074061;28;20198;-68
2022/09/20 10:45:18;;;;;;;1.95;0.50;;;14.50;99.90;;;;;;5074051;28;20110;-68
2022/09/20 10:47:59;;;;;;;2.60;0.53;;;14.30;99.90;;;;;;5073335;28;20052;-69
2022/09/20 10:50:53;;;;;;;1.95;0.60;;;14.10;99.90;;;;;;5073443;28;20174;-68
2022/09/20 10:53:26;;;;;;;2.28;0.50;;;13.90;99.90;;;;;;5072536;28;20056;-68
2022/09/20 10:56:15;;;;;;;1.88;0.77;;;13.70;99.90;;;;;;5073308;28;20052;-70
2022/09/20 10:59:14;;;;;;;2.00;0.60;;;13.60;99.90;;;;;;5055943;28;20159;-74
2022/09/20 11:01:54;;;;;;;2.97;0.50;;;13.50;99.90;;;;;;5061361;28;20053;-77
2022/09/20 11:04:44;;;;;;;3.13;0.60;;;13.50;99.90;;;;;;5074307;28;20356;-75
2022/09/20 11:07:35;;;;;;;2.17;0.60;;;13.50;99.90;;;;;;5073038;28;20060;-75
2022/09/20 11:10:13;;;;;;;1.77;0.60;;;13.40;99.90;;;;;;5063568;28;20438;-75
2022/09/20 11:12:50;;;;;;;2.22;0.63;;;13.50;99.90;;;;;;5073926;28;20053;-75
2022/09/20 11:15:38;;;;;;;1.88;0.60;;;13.50;99.90;;;;;;5073127;28;20048;-75
2022/09/20 11:18:04;;;;;;;1.52;0.60;;;13.60;99.90;;;;;;5072060;28;20052;-74
2022/09/20 11:20:40;;;;;;;1.92;0.70;;;13.70;99.90;;;;;;5072089;28;20044;-75
2022/09/20 11:23:12;;;;;;;;;;;14.00;99.90;;;;;;5072796;28;20052;-74
2022/09/20 11:26:06;;;;;;;2.72;0.70;;;14.30;99.90;;;;;;5075577;28;20277;-75
2022/09/20 11:29:21;;;;;;;2.65;0.45;;;14.50;99.90;;;;;;5057464;28;20048;-74
2022/09/20 11:31:51;;;;;;;1.05;0.55;;;14.60;99.90;;;;;;5068180;28;20452;-74
2022/09/20 11:34:24;;;;;;;1.83;0.47;;;14.70;99.90;;;;;;5072992;28;20055;-74
2022/09/20 11:36:57;;;;;;;3.88;0.50;;;14.70;99.90;;;;;;5073441;28;20056;-74
2022/09/20 11:39:53;;;;;;;2.85;0.52;;;14.70;99.90;;;;;;5072939;28;20137;-76
2022/09/20 11:42:34;;;;;;;1.98;0.60;;;14.60;99.90;;;;;;5073025;28;20040;-75
2022/09/20 11:44:59;;;;;;;2.33;0.55;;;14.50;99.90;;;;;;5071525;28;20052;-76
2022/09/20 11:47:38;;;;;;;2.78;0.60;;;14.50;99.90;;;;;;5072730;28;20050;-75
2022/09/20 11:50:37;;;;;;;1.65;0.45;;;14.40;99.90;;;;;;5072126;28;20048;-75
2022/09/20 11:53:22;;;;;;;2.85;0.50;;;14.50;99.90;;;;;;5071816;28;20057;-72
2022/09/20 11:55:49;;;;;;;1.90;0.63;;;14.70;99.90;;;;;;5071496;28;20068;-73
2022/09/20 11:58:19;;;;;;;2.33;0.60;;;14.80;99.90;;;;;;5074710;28;20056;-72
2022/09/20 12:00:48;;;;;;;2.88;0.50;;;14.90;99.90;;;;;;5075834;28;20044;-73
2022/09/20 12:03:26;;;;;;;1.17;0.60;;;15.10;99.90;;;;;;5076472;28;20049;-73
2022/09/20 12:06:04;;;;;;;1.40;0.50;;;15.10;99.90;;;;;;5075712;28;20044;-73
2022/09/20 12:08:40;;;;;;;0.98;0.40;;;15.10;99.90;;;;;;5076776;28;20059;-73
2022/09/20 12:11:12;;;;;;;1.70;0.50;;;15.10;99.90;;;;;;5075575;28;20139;-73
2022/09/20 12:13:51;;;;;;;1.85;0.50;;;15.10;99.90;;;;;;5077184;28;20473;-73
2022/09/20 12:16:39;;;;;;;1.90;0.50;;;15.20;99.90;;;;;;5074971;28;20040;-73
2022/09/20 12:19:09;;;;;;;0.88;0.43;;;15.30;99.90;;;;;;5075826;28;20063;-74
2022/09/20 12:21:57;;;;;;;2.35;0.70;;;15.30;99.90;;;;;;5074949;28;20036;-72
2022/09/20 12:24:29;;;;;;;2.30;0.50;;;15.40;99.90;;;;;;5075173;28;20106;-73
2022/09/20 12:27:22;;;;;;;1.77;0.60;;;15.40;99.90;;;;;;5076101;28;20044;-73
2022/09/20 12:29:53;;;;;;;2.67;0.70;;;15.50;99.90;;;;;;5076019;28;20044;-73
2022/09/20 12:32:39;;;;;;;2.15;0.68;;;15.50;99.90;;;;;;5075859;28;20037;-73
2022/09/20 12:35:37;;;;;;;2.70;0.63;;;15.60;99.90;;;;;;5075972;28;20055;-73
2022/09/20 12:38:26;;;;;;;2.45;0.60;;;15.60;99.90;;;;;;5075085;28;20048;-72
2022/09/20 12:41:02;;;;;;;2.83;0.60;;;15.60;99.90;;;;;;5075880;28;20125;-72
2022/09/20 12:43:29;;;;;;;;;;;15.70;99.90;;;;;;5076067;28;20052;-73
2022/09/20 12:45:56;;;;;;;1.60;0.60;;;15.70;99.90;;;;;;5074516;28;19921;-72
2022/09/20 12:48:22;;;;;;;2.17;0.82;;;15.80;99.90;;;;;;5075689;28;20090;-73
2022/09/20 12:54:07;;;;;;;3.72;0.68;;;15.90;99.90;;;;;;5075724;28;20055;-73
2022/09/20 12:56:35;;;;;;;2.55;0.70;;;15.90;99.90;;;;;;5074915;28;20361;-75
2022/09/20 12:59:04;;;;;;;1.08;0.40;;;15.80;99.90;;;;;;5075799;28;20045;-75
2022/09/20 13:01:36;;;;;;;2.63;0.60;;;15.70;99.90;;;;;;5074502;28;20522;-72
2022/09/20 13:04:40;;;;;;;2.15;0.43;;;15.60;99.90;;;;;;5057657;28;20060;-74
2022/09/20 13:07:31;;;;;;;1.38;0.50;;;15.50;99.90;;;;;;5074025;28;20074;-72
2022/09/20 13:10:00;;;;;;;1.75;0.50;;;15.40;99.90;;;;;;5068605;28;20092;-73
2022/09/20 13:12:26;;;;;;;1.92;0.57;;;15.40;99.90;;;;;;5075413;28;20044;-73
2022/09/20 13:14:53;;;;;;;4.60;0.70;;;15.30;99.90;;;;;;5074224;28;20056;-74
2022/09/20 13:17:26;;;;;;;2.22;0.93;;;15.30;99.90;;;;;;5075338;28;20396;-73
2022/09/20 13:19:55;;;;;;;4.43;0.80;;;15.20;99.90;;;;;;5074401;28;20117;-73
2022/09/20 13:22:33;;;;;;;4.13;0.60;;;15.20;99.90;;;;;;5074923;28;20090;-73
2022/09/20 13:25:02;;;;;;;1.42;0.60;;;15.20;99.90;;;;;;5075587;28;20088;-73
2022/09/20 13:27:58;;;;;;;3.35;0.50;;;15.20;99.90;;;;;;5074941;28;20139;-73
2022/09/20 13:30:31;;;;;;;1.80;0.60;;;15.20;99.90;;;;;;5074093;28;20087;-73
2022/09/20 13:33:14;;;;;;;4.35;0.82;;;15.20;99.90;;;;;;5075251;28;20045;-74
2022/09/20 13:35:40;;;;;;;2.55;0.57;;;15.20;99.90;;;;;;5056885;28;20090;-74
2022/09/20 13:38:08;;;;;;;3.55;0.77;;;15.20;99.90;;;;;;5074674;28;20045;-73
2022/09/20 13:40:41;;;;;;;2.63;0.65;;;15.20;99.90;;;;;;5075474;28;20045;-73
2022/09/20 13:43:28;;;;;;;3.88;0.82;;;15.30;99.90;;;;;;5073970;28;20063;-73
2022/09/20 13:45:58;;;;;;;3.03;0.70;;;15.40;99.90;;;;;;5074479;28;20052;-73
2022/09/20 13:48:26;;;;;;;4.78;0.85;;;15.50;99.90;;;;;;5073509;28;20040;-72
2022/09/20 13:50:52;;;;;;;2.17;0.63;;;15.60;99.90;;;;;;5073797;28;20098;-72
2022/09/20 13:53:18;;;;;;;2.17;0.68;;;15.60;99.90;;;;;;5074252;28;20084;-73
2022/09/20 13:55:45;;;;;;;3.60;1.17;;;15.60;99.90;;;;;;5074441;28;20049;-74
2022/09/20 13:58:37;;;;;;;1.95;0.52;;;15.60;99.90;;;;;;5073402;28;20434;-72
2022/09/20 14:01:08;;;;;;;2.50;0.47;;;15.50;99.90;;;;;;5074210;28;20091;-76
2022/09/20 14:03:34;;;;;;;2.75;0.65;;;15.50;99.90;;;;;;5073986;28;20041;-76
2022/09/20 14:06:12;;;;;;;1.52;0.45;;;15.40;99.90;;;;;;5072941;28;20110;-76